createdAt,value
2019-04-23T00:02:30.540Z,10.85
2019-04-23T00:07:48.372Z,10.83
2019-04-23T00:12:49.791Z,10.77
2019-04-23T00:18:15.212Z,10.63
2019-04-23T00:23:07.777Z,10.60
2019-04-23T00:28:24.392Z,10.54
2019-04-23T00:43:41.005Z,10.41
2019-04-23T00:48:54.265Z,10.43
2019-04-23T00:53:43.799Z,10.47
2019-04-23T00:58:56.447Z,10.37
2019-04-23T01:04:18.585Z,10.40
2019-04-23T01:09:08.826Z,10.03
2019-04-23T01:14:20.263Z,9.97
2019-04-23T01:19:44.485Z,9.62
2019-04-23T01:24:34.464Z,9.57
2019-04-23T01:40:18.805Z,9.20
2019-04-23T01:45:24.217Z,9.10
2019-04-23T01:50:37.598Z,8.88
2019-04-23T01:55:44.074Z,8.67
2019-04-23T02:00:46.912Z,8.54
2019-04-23T02:11:02.929Z,8.53
2019-04-23T02:16:14.583Z,8.44
2019-04-23T02:21:36.602Z,8.29
2019-04-23T02:26:36.858Z,8.18
2019-04-23T02:42:20.848Z,8.27
2019-04-23T02:47:17.431Z,8.44
2019-04-23T02:52:21.248Z,8.41
2019-04-23T02:57:28.969Z,8.44
2019-04-23T03:02:41.360Z,8.38
2019-04-23T03:12:59.180Z,8.21
2019-04-23T03:23:34.380Z,8.02
2019-04-23T03:28:42.938Z,7.95
2019-04-23T03:43:46.564Z,7.90
2019-04-23T03:48:59.511Z,7.81
2019-04-23T03:54:31.924Z,7.77
2019-04-23T03:59:29.163Z,7.79
2019-04-23T04:14:46.710Z,8.03
2019-04-23T04:24:59.068Z,8.25
2019-04-23T04:40:33.155Z,8.59
2019-04-23T04:45:42.297Z,8.72
2019-04-23T04:50:49.305Z,8.93
2019-04-23T05:01:08.469Z,9.35
2019-04-23T05:11:19.643Z,9.42
2019-04-23T05:16:19.721Z,9.60
2019-04-23T05:21:26.535Z,9.62
2019-04-23T05:31:32.502Z,9.58
2019-04-23T05:36:49.884Z,9.94
2019-04-23T05:41:55.771Z,10.05
2019-04-23T05:47:00.558Z,10.51
2019-04-23T05:52:07.490Z,10.61
2019-04-23T05:57:13.737Z,10.70
2019-04-23T06:02:18.203Z,11.00
2019-04-23T06:12:42.299Z,11.64
2019-04-23T06:17:47.537Z,11.70
2019-04-23T06:28:01.793Z,11.60
2019-04-23T06:33:08.798Z,11.76
2019-04-23T06:38:34.420Z,11.80
2019-04-23T06:43:24.324Z,11.79
2019-04-23T06:48:35.155Z,11.89
2019-04-23T06:53:40.420Z,11.71
2019-04-23T06:58:43.250Z,11.95
2019-04-23T07:04:05.587Z,11.89
2019-04-23T07:14:22.978Z,12.24
2019-04-23T07:19:37.174Z,12.45
2019-04-23T07:24:21.494Z,12.72
2019-04-23T07:29:30.864Z,12.96
2019-04-23T07:34:41.468Z,13.26
2019-04-23T07:40:11.269Z,13.33
2019-04-23T07:45:12.507Z,13.75
2019-04-23T07:50:22.900Z,13.95
2019-04-23T07:55:36.255Z,14.15
2019-04-23T08:00:45.163Z,13.90
2019-04-23T08:05:49.734Z,13.42
2019-04-23T08:11:01.490Z,13.38
2019-04-23T08:15:57.406Z,13.35
2019-04-23T08:21:00.868Z,13.35
2019-04-23T08:36:51.822Z,13.19
2019-04-23T08:42:09.523Z,13.19
2019-04-23T08:47:17.181Z,12.90
2019-04-23T08:52:18.271Z,12.98
2019-04-23T09:08:05.198Z,13.25
2019-04-23T09:13:32.128Z,13.50
2019-04-23T09:17:57.848Z,14.06
2019-04-23T09:22:57.594Z,14.09
2019-04-23T09:28:09.106Z,13.77
2019-04-23T09:33:41.336Z,13.71
2019-04-23T09:38:45.085Z,13.47
2019-04-23T09:44:27.569Z,13.41
2019-04-23T09:49:20.858Z,13.45
2019-04-23T09:54:27.175Z,13.26
2019-04-23T10:04:23.539Z,12.59
2019-04-23T10:09:20.799Z,12.61
2019-04-23T10:14:28.287Z,12.80
2019-04-23T10:19:35.073Z,12.76
2019-04-23T10:24:43.440Z,12.79
2019-04-23T10:29:49.923Z,12.89
2019-04-23T10:40:05.732Z,13.05
2019-04-23T10:45:47.845Z,13.09
2019-04-23T10:56:18.312Z,13.48
2019-04-23T11:01:21.303Z,13.63
2019-04-23T11:06:36.822Z,13.58
2019-04-23T11:11:34.426Z,13.52
2019-04-23T11:26:57.998Z,13.25
2019-04-23T11:32:19.657Z,13.16
2019-04-23T11:37:23.158Z,13.23
2019-04-23T11:52:35.663Z,13.22
2019-04-23T11:57:56.851Z,13.33
2019-04-23T12:02:57.960Z,13.35
2019-04-23T12:13:28.382Z,13.53
2019-04-23T12:18:35.348Z,13.69
2019-04-23T12:23:50.326Z,13.34
2019-04-23T12:28:43.951Z,13.45
2019-04-23T12:33:55.340Z,13.41
2019-04-23T12:38:56.813Z,13.63
2019-04-23T12:44:14.888Z,13.61
2019-04-23T12:49:40.616Z,13.82
2019-04-23T12:54:31.800Z,13.65
2019-04-23T12:59:30.524Z,13.65
2019-04-23T13:04:43.920Z,13.85
2019-04-23T13:09:55.617Z,13.42
2019-04-23T13:14:56.020Z,13.59
2019-04-23T13:20:04.136Z,13.33
2019-04-23T13:25:15.990Z,13.70
2019-04-23T13:30:25.339Z,13.49
2019-04-23T13:40:39.481Z,13.63
2019-04-23T13:46:00.091Z,13.24
2019-04-23T13:56:03.739Z,13.31
2019-04-23T14:26:39.956Z,13.30
2019-04-23T14:31:53.289Z,13.23
2019-04-23T14:42:24.397Z,13.10
2019-04-23T14:57:35.118Z,12.52
2019-04-23T15:07:42.196Z,12.28
2019-04-23T15:26:15.740Z,12.23
2019-04-23T15:31:00.742Z,11.91
2019-04-23T15:36:12.779Z,12.13
2019-04-23T15:41:10.281Z,11.90
2019-04-23T15:46:24.123Z,12.01
2019-04-23T15:51:30.965Z,11.83
2019-04-23T15:56:35.930Z,11.85
2019-04-23T16:01:35.112Z,11.81
2019-04-23T16:06:20.987Z,11.66
2019-04-23T16:11:48.195Z,11.52
2019-04-23T16:17:05.093Z,11.55
2019-04-23T16:22:09.316Z,11.53
2019-04-23T16:27:11.048Z,11.37
2019-04-23T16:32:31.441Z,11.43
2019-04-23T16:37:28.854Z,11.19
2019-04-23T16:42:39.973Z,11.22
2019-04-23T16:47:49.055Z,11.10
2019-04-23T16:52:51.874Z,11.16
2019-04-23T16:58:08.446Z,11.11
2019-04-23T17:08:35.540Z,11.24
2019-04-23T17:13:21.170Z,11.19
2019-04-23T17:18:31.438Z,11.25
2019-04-23T17:29:00.363Z,11.35
2019-04-23T17:33:59.135Z,11.38
2019-04-23T17:39:08.186Z,11.45
2019-04-23T17:49:30.037Z,11.21
2019-04-23T17:54:53.489Z,11.20
2019-04-23T18:00:21.910Z,11.24
2019-04-23T18:05:11.061Z,11.42
2019-04-23T18:10:21.370Z,11.21
2019-04-23T18:15:09.581Z,11.15
2019-04-23T18:20:23.117Z,11.15
2019-04-23T18:25:31.831Z,10.99
2019-04-23T18:31:06.534Z,11.08
2019-04-23T18:36:02.436Z,11.14
2019-04-23T18:46:22.938Z,11.33
2019-04-23T18:51:20.950Z,11.24
2019-04-23T18:56:58.277Z,11.08
2019-04-23T19:01:50.144Z,11.16
2019-04-23T19:06:44.107Z,11.13
2019-04-23T19:12:16.054Z,11.00
2019-04-23T19:27:37.638Z,11.07
2019-04-23T19:32:43.613Z,11.06
2019-04-23T19:42:55.423Z,10.90
2019-04-23T19:53:32.212Z,10.80
2019-04-23T19:58:27.422Z,10.80
2019-04-23T20:08:49.414Z,10.96
2019-04-23T20:13:49.559Z,10.86
2019-04-23T20:24:04.665Z,10.73
2019-04-23T20:29:19.607Z,10.63
2019-04-23T20:39:32.729Z,10.45
2019-04-23T20:44:50.357Z,10.39
2019-04-23T20:49:48.561Z,10.41
2019-04-23T21:00:01.473Z,10.34
2019-04-23T21:05:10.215Z,10.37
2019-04-23T21:15:40.579Z,10.48
2019-04-23T21:31:02.255Z,10.76
2019-04-23T21:46:20.652Z,10.75
2019-04-23T21:51:38.484Z,10.87
2019-04-23T21:56:37.119Z,10.81
2019-04-23T22:01:43.609Z,10.82
2019-04-23T22:12:07.191Z,10.77
2019-04-23T22:17:10.235Z,10.77
2019-04-23T22:22:12.579Z,10.79
2019-04-23T22:27:16.236Z,10.80
2019-04-23T22:32:39.564Z,10.79
2019-04-23T22:37:46.308Z,10.73
2019-04-23T22:43:02.683Z,10.70
2019-04-23T22:47:58.445Z,10.65
2019-04-23T22:53:02.316Z,10.79
2019-04-23T23:03:27.717Z,10.96
2019-04-23T23:08:44.000Z,11.01
2019-04-23T23:14:01.111Z,11.04
2019-04-23T23:18:58.524Z,10.99
2019-04-23T23:24:00.156Z,10.96
2019-04-23T23:29:00.700Z,10.61
2019-04-23T23:39:22.695Z,9.79
2019-04-23T23:49:44.228Z,9.62
2019-04-23T23:54:45.171Z,9.68
